Flight Track Log - Related Links

Times and Time Zones

All times are in EDT time to prevent confusion due to time zone crossing. See the ASH3770 flight status page for this flight to view local times or setup timezone preferences in your user account.

Time Position Orientation Groundspeed Altitude Reporting Facility
EDT Latitude Longitude Course Direction KTS MPH feet Rate Location/Type
Sun 04:10:59 PM 38.9667 -77.5500 106° East 215 247 2,700  Level Potomac TRACON
Sun 04:11:59 PM 39.0000 -77.6167 303° West 262 302 5,000 2,439 Climbing Potomac TRACON
Sun 04:13:00 PM 38.6833 -77.2935 124° Southeast  Level Estimated
Sun 04:13:02 PM 39.0642 -77.6767 324° Northwest 288 331 7,700  Level Washington Center
Sun 04:14:00 PM 38.6626 -77.2031 106° East  Level FlightAware Approximate
Sun 04:14:03 PM 39.1278 -77.6092 39° Northeast 318 366 9,900  Level Washington Center
Sun 04:15:00 PM 38.6419 -77.1127 106° East  Level FlightAware Approximate
Sun 04:15:00 PM 39.1667 -77.4833 68° East 391 450 10,000  Level Potomac TRACON
Sun 04:15:55 PM 39.1667 -77.3667 90° East 377 434 10,000  Level Potomac TRACON
Sun 04:16:00 PM 38.6211 -77.0224 106° East  Level FlightAware Approximate
Sun 04:17:01 PM 39.1333 -77.2167 106° East 386 444 10,000  Level Potomac TRACON
Sun 04:18:01 PM 39.0667 -77.1000 126° Southeast 381 438 11,600 1,884 Climbing Potomac TRACON
Sun 04:19:02 PM 39.0000 -77.0167 136° Southeast 373 429 13,800 1,190 Climbing Potomac TRACON
Sun 04:20:02 PM 38.9000 -76.9500 153° Southeast 426 490 14,000 67 Climbing Potomac TRACON
Sun 04:22:01 PM 38.7089 -76.8261 153° Southeast 433 498 14,000  Level Washington Center
Sun 04:23:02 PM 38.6094 -76.7606 153° Southeast 414 476 14,000  Level Washington Center
Sun 04:24:01 PM 38.5056 -76.7244 165° South 402 463 14,000  Level Washington Center
Sun 04:25:01 PM 38.4017 -76.7069 172° South 388 447 14,000  Level Washington Center
Sun 04:26:02 PM 38.2850 -76.6869 172° South 383 441 14,000  Level Washington Center
Sun 04:27:02 PM 38.1875 -76.6353 157° South 383 441 14,000  Level Washington Center
Sun 04:28:00 PM 38.0856 -76.5836 158° South 388 447 14,000 -407 Level Washington Center
Sun 04:29:00 PM 37.9881 -76.5297 156° South 388 447 13,200 -893 Descending Washington Center
Sun 04:30:01 PM 37.8906 -76.4786 158° South 388 447 12,200 -992 Descending Washington Center
Sun 04:31:01 PM 37.7928 -76.4275 158° South 388 447 11,200 -1,021 Descending Washington Center
Sun 04:31:35 PM 37.7386 -76.4058 162° South 382 440 10,600 -713 Descending Washington Center
Sun 04:32:42 PM 37.6264 -76.3444 157° South 379 436 10,000 -375 Descending Washington Center
Sun 04:33:43 PM 37.5497 -76.2756 145° Southeast 328 377 9,800 -1,131 Descending Washington Center
Sun 04:34:44 PM 37.4894 -76.2122 140° Southeast 272 313 7,700 -1,878 Descending Washington Center
Sun 04:35:38 PM 37.4231 -76.1750 156° South 272 313 6,200 -1,321 Descending Washington Center
Sun 04:36:33 PM 37.3606 -76.1483 161° South 257 296 5,300 -983 Descending Washington Center
Sun 04:37:34 PM 37.2897 -76.1269 166° South 268 308 4,300 -639 Descending Washington Center
Sun 04:38:35 PM 37.2189 -76.1056 166° South 260 299 4,000 -197 Descending Washington Center
Sun 04:39:36 PM 37.1461 -76.0817 165° South 258 297 3,900 -99 Descending Washington Center
Sun 04:40:36 PM 37.0753 -76.0578 165° South 267 307 3,800 -100 Descending Washington Center

Login

Don't have an account? Register now (free) for customized features, flight alerts, and more!